Time;durP1;ratioP1;P1;durP2;ratioP2;P2;SDS_P1;SDS_P2;PMS_P1;PMS_P2;Temp;Humidity;BMP_temperature;BMP_pressure;BME280_temperature;BME280_humidity;BME280_pressure;Samples;Min_cycle;Max_cycle;Signal;HPM_P1;HPM_P2
2023/05/24 00:01:02;;;;;;;2.08;0.80;;;;;;;;;;10454535;28;20236;-80
2023/05/24 00:06:05;;;;;;;5.88;0.93;;;;;;;;;;10479858;28;20333;-84
2023/05/24 00:11:07;;;;;;;3.65;1.00;;;;;;;;;;10476225;28;20295;-80
2023/05/24 00:16:07;;;;;;;5.28;1.30;;;;;;;;;;10454049;28;20214;-80
2023/05/24 00:21:09;;;;;;;5.07;1.08;;;;;;;;;;10459385;28;20214;-83
2023/05/24 00:26:10;;;;;;;7.22;1.27;;;;;;;;;;10481599;28;20214;-82
2023/05/24 00:31:14;;;;;;;3.33;0.80;;;;;;;;;;10462279;28;20322;-82
2023/05/24 00:36:15;;;;;;;3.60;0.73;;;;;;;;;;10464886;28;20214;-81
2023/05/24 00:41:16;;;;;;;5.45;1.05;;;;;;;;;;10474973;28;20308;-80
2023/05/24 00:46:21;;;;;;;5.88;1.15;;;;;;;;;;10453212;28;20298;-81
2023/05/24 00:51:22;;;;;;;4.35;0.80;;;;;;;;;;10437523;28;20692;-80
2023/05/24 00:56:23;;;;;;;4.47;1.08;;;;;;;;;;10464648;28;20205;-82
2023/05/24 01:01:29;;;;;;;3.70;0.98;;;;;;;;;;10472614;28;21871;-82
2023/05/24 01:06:32;;;;;;;4.93;1.58;;;;;;;;;;10453522;28;20206;-80
2023/05/24 01:11:50;;;;;;;9.50;1.08;;;;;;;;;;10453372;28;20268;-80
2023/05/24 01:16:56;;;;;;;6.22;1.23;;;;;;;;;;10453062;28;20648;-81
2023/05/24 01:22:01;;;;;;;11.18;1.17;;;;;;;;;;10452877;28;20282;-82
2023/05/24 01:27:08;;;;;;;5.30;1.40;;;;;;;;;;10470594;28;20214;-81
2023/05/24 01:32:10;;;;;;;5.30;1.17;;;;;;;;;;10450798;28;20205;-82
2023/05/24 01:37:11;;;;;;;9.43;1.98;;;;;;;;;;10452978;28;20292;-80
2023/05/24 01:42:20;;;;;;;8.63;1.10;;;;;;;;;;10455653;28;20297;-82
2023/05/24 01:47:27;;;;;;;3.47;1.05;;;;;;;;;;10456341;28;20233;-79
2023/05/24 01:52:31;;;;;;;4.60;0.90;;;;;;;;;;10469018;28;20317;-81
2023/05/24 01:57:34;;;;;;;7.82;1.05;;;;;;;;;;10456384;28;20214;-80
2023/05/24 02:02:35;;;;;;;5.30;2.08;;;;;;;;;;10469943;28;20306;-80
2023/05/24 02:07:36;;;;;;;4.88;1.25;;;;;;;;;;10477773;28;20277;-81
2023/05/24 02:12:37;;;;;;;6.15;1.38;;;;;;;;;;10457486;28;20255;-81
2023/05/24 02:17:39;;;;;;;2.95;1.23;;;;;;;;;;10471016;28;21011;-82
2023/05/24 02:22:40;;;;;;;5.38;1.17;;;;;;;;;;10476616;28;20237;-84
2023/05/24 02:27:45;;;;;;;6.95;1.15;;;;;;;;;;10463488;28;20217;-82
2023/05/24 02:32:46;;;;;;;7.97;1.35;;;;;;;;;;10457669;28;20632;-81
2023/05/24 02:37:47;;;;;;;7.03;1.25;;;;;;;;;;10485458;28;20225;-81
2023/05/24 02:42:49;;;;;;;8.30;1.48;;;;;;;;;;10463796;28;20766;-81
2023/05/24 02:47:50;;;;;;;2.72;1.00;;;;;;;;;;10457421;28;20232;-81
2023/05/24 02:52:51;;;;;;;4.78;1.65;;;;;;;;;;10465563;28;20221;-80
2023/05/24 02:57:52;;;;;;;3.47;1.40;;;;;;;;;;10458005;28;20271;-81
2023/05/24 03:02:55;;;;;;;10.68;2.08;;;;;;;;;;10465257;28;20214;-80
2023/05/24 03:07:57;;;;;;;10.63;1.85;;;;;;;;;;10475348;28;20214;-80
2023/05/24 03:12:58;;;;;;;5.68;1.65;;;;;;;;;;10479421;28;20240;-80
2023/05/24 03:17:59;;;;;;;5.88;1.52;;;;;;;;;;10495094;28;20391;-82
2023/05/24 03:23:00;;;;;;;5.82;1.20;;;;;;;;;;10459826;28;20787;-80
2023/05/24 03:28:02;;;;;;;2.33;1.05;;;;;;;;;;10465100;28;20224;-80
2023/05/24 03:33:03;;;;;;;12.43;2.03;;;;;;;;;;10471743;28;20220;-80
2023/05/24 03:38:04;;;;;;;6.82;2.15;;;;;;;;;;10472452;28;20213;-81
2023/05/24 03:43:06;;;;;;;2.92;1.25;;;;;;;;;;10459943;28;20234;-82
2023/05/24 03:48:19;;;;;;;5.20;1.58;;;;;;;;;;10470194;28;20218;-82
2023/05/24 03:53:21;;;;;;;9.00;1.95;;;;;;;;;;10484745;28;20290;-81
2023/05/24 03:58:22;;;;;;;14.63;1.70;;;;;;;;;;10457253;28;20244;-82
2023/05/24 04:03:24;;;;;;;6.65;1.83;;;;;;;;;;10459099;28;20214;-80
2023/05/24 04:08:25;;;;;;;5.95;1.40;;;;;;;;;;10480060;28;20217;-81
2023/05/24 04:13:26;;;;;;;10.82;1.85;;;;;;;;;;10488169;28;20747;-84
2023/05/24 04:18:28;;;;;;;5.00;1.60;;;;;;;;;;10473135;28;20209;-80
2023/05/24 04:23:29;;;;;;;7.88;1.88;;;;;;;;;;10471721;28;20215;-83
2023/05/24 04:28:30;;;;;;;8.52;1.70;;;;;;;;;;10471596;28;20264;-83
2023/05/24 04:33:33;;;;;;;13.15;2.45;;;;;;;;;;10481769;28;21006;-78
2023/05/24 04:38:35;;;;;;;16.15;2.13;;;;;;;;;;10459688;28;20225;-81
2023/05/24 04:43:36;;;;;;;9.73;2.13;;;;;;;;;;10478351;28;20788;-79
2023/05/24 04:48:37;;;;;;;6.50;1.65;;;;;;;;;;10494483;28;20995;-82
2023/05/24 04:53:38;;;;;;;7.97;2.20;;;;;;;;;;10475163;28;20213;-80
2023/05/24 04:58:39;;;;;;;15.50;3.20;;;;;;;;;;10473697;28;20297;-80
2023/05/24 05:03:40;;;;;;;9.02;2.30;;;;;;;;;;10491506;28;20901;-80
2023/05/24 05:08:41;;;;;;;4.22;2.13;;;;;;;;;;10460515;28;20262;-83
2023/05/24 05:19:47;;;;;;;6.30;1.90;;;;;;;;;;10468977;28;20232;-84
2023/05/24 05:24:48;;;;;;;7.43;2.85;;;;;;;;;;10443838;28;20214;-84
2023/05/24 05:29:49;;;;;;;8.27;1.92;;;;;;;;;;10445570;28;20244;-83
2023/05/24 05:34:50;;;;;;;11.10;2.17;;;;;;;;;;10478039;28;20214;-83
2023/05/24 05:39:51;;;;;;;10.50;2.75;;;;;;;;;;10457390;28;20213;-84
2023/05/24 05:44:52;;;;;;;13.18;3.55;;;;;;;;;;10459513;28;20599;-85
2023/05/24 05:49:53;;;;;;;9.40;1.98;;;;;;;;;;10483844;28;20217;-84
2023/05/24 05:54:54;;;;;;;11.25;1.73;;;;;;;;;;10469639;28;20209;-84
2023/05/24 05:59:55;;;;;;;16.88;2.88;;;;;;;;;;10478398;28;20218;-83
2023/05/24 06:04:57;;;;;;;11.20;2.80;;;;;;;;;;10479437;28;20206;-82
2023/05/24 06:09:58;;;;;;;8.55;2.33;;;;;;;;;;10476854;28;20218;-82
2023/05/24 06:14:59;;;;;;;7.43;2.20;;;;;;;;;;10481966;28;20206;-81
2023/05/24 06:20:00;;;;;;;6.00;2.75;;;;;;;;;;10504491;28;20231;-81
2023/05/24 06:25:01;;;;;;;11.60;2.33;;;;;;;;;;10487187;28;20210;-82
2023/05/24 06:30:02;;;;;;;6.00;2.15;;;;;;;;;;10469082;28;20229;-81
2023/05/24 06:35:03;;;;;;;15.20;2.75;;;;;;;;;;10486916;28;20197;-82
2023/05/24 06:40:10;;;;;;;20.17;2.38;;;;;;;;;;10493070;28;20229;-82
2023/05/24 06:45:12;;;;;;;8.57;2.47;;;;;;;;;;10474754;28;20190;-81
2023/05/24 06:50:13;;;;;;;5.90;2.03;;;;;;;;;;10485450;28;20207;-82
2023/05/24 06:55:14;;;;;;;16.90;3.10;;;;;;;;;;10481992;28;20174;-82
2023/05/24 07:00:16;;;;;;;13.30;2.30;;;;;;;;;;10506394;28;20202;-80
2023/05/24 07:05:17;;;;;;;10.15;2.60;;;;;;;;;;10490553;28;20182;-82
2023/05/24 07:10:18;;;;;;;7.32;2.53;;;;;;;;;;10474797;28;20237;-82
2023/05/24 07:15:20;;;;;;;12.65;2.38;;;;;;;;;;10479508;28;20199;-81
2023/05/24 07:20:21;;;;;;;7.10;2.55;;;;;;;;;;10482954;28;20252;-82
2023/05/24 07:25:23;;;;;;;13.70;2.63;;;;;;;;;;10496712;28;20254;-82
2023/05/24 07:30:24;;;;;;;12.48;3.08;;;;;;;;;;10487060;28;20220;-83
2023/05/24 07:35:28;;;;;;;7.78;2.25;;;;;;;;;;10478304;28;20315;-82
2023/05/24 07:40:29;;;;;;;8.25;2.08;;;;;;;;;;10495607;28;20252;-82
2023/05/24 07:45:30;;;;;;;9.63;2.45;;;;;;;;;;10465462;28;20217;-81
2023/05/24 07:50:32;;;;;;;11.40;2.92;;;;;;;;;;10495028;28;20222;-81
2023/05/24 07:55:33;;;;;;;15.52;3.15;;;;;;;;;;10475419;28;20213;-81
2023/05/24 08:00:34;;;;;;;15.77;3.03;;;;;;;;;;10474431;28;20229;-81
2023/05/24 08:05:35;;;;;;;14.00;2.80;;;;;;;;;;10467183;28;20217;-81
2023/05/24 08:10:36;;;;;;;7.72;2.63;;;;;;;;;;10473961;28;20281;-81
2023/05/24 08:15:37;;;;;;;7.82;2.80;;;;;;;;;;10472706;28;20245;-81
2023/05/24 08:20:40;;;;;;;21.65;3.15;;;;;;;;;;10492354;28;20218;-82
2023/05/24 08:25:41;;;;;;;10.23;2.47;;;;;;;;;;10487561;28;20209;-82
2023/05/24 08:30:42;;;;;;;12.70;3.30;;;;;;;;;;10490159;28;20233;-83
2023/05/24 08:35:43;;;;;;;10.55;2.42;;;;;;;;;;10493379;28;20617;-83
2023/05/24 08:40:44;;;;;;;7.35;2.33;;;;;;;;;;10494501;28;20224;-81
2023/05/24 08:45:46;;;;;;;8.50;1.98;;;;;;;;;;10488531;28;20213;-82
2023/05/24 08:50:47;;;;;;;9.35;2.65;;;;;;;;;;10488975;28;20206;-82
2023/05/24 08:55:52;;;;;;;8.00;2.97;;;;;;;;;;10487154;28;20225;-83
2023/05/24 09:00:53;;;;;;;8.10;1.48;;;;;;;;;;10501916;28;20214;-82
2023/05/24 09:05:54;;;;;;;4.25;2.22;;;;;;;;;;10513695;28;20297;-82
2023/05/24 09:10:55;;;;;;;5.13;1.90;;;;;;;;;;10465627;28;20218;-82
2023/05/24 09:15:58;;;;;;;13.75;2.53;;;;;;;;;;10488691;28;20989;-83
2023/05/24 09:20:59;;;;;;;10.63;2.58;;;;;;;;;;10478744;28;20222;-82
2023/05/24 09:26:06;;;;;;;6.13;1.88;;;;;;;;;;10490958;28;20228;-82
2023/05/24 09:31:07;;;;;;;9.25;2.13;;;;;;;;;;10484170;28;20285;-82
2023/05/24 09:36:08;;;;;;;8.52;2.13;;;;;;;;;;10468997;28;20216;-81
2023/05/24 09:41:09;;;;;;;9.15;2.30;;;;;;;;;;10465289;28;20295;-82
2023/05/24 09:46:15;;;;;;;11.68;1.92;;;;;;;;;;10478198;28;20241;-82
2023/05/24 09:51:17;;;;;;;7.20;1.92;;;;;;;;;;10486305;28;20221;-82
2023/05/24 09:56:18;;;;;;;12.00;1.50;;;;;;;;;;10482302;28;20226;-83
2023/05/24 10:01:23;;;;;;;10.20;2.25;;;;;;;;;;10483534;28;20955;-82
2023/05/24 10:06:24;;;;;;;9.35;2.47;;;;;;;;;;10462805;28;20252;-82
2023/05/24 10:11:25;;;;;;;7.20;1.98;;;;;;;;;;10482216;28;20221;-81
2023/05/24 10:16:26;;;;;;;5.97;1.42;;;;;;;;;;10462338;28;20213;-83
2023/05/24 10:21:28;;;;;;;6.70;1.75;;;;;;;;;;10488920;28;22362;-83
2023/05/24 10:26:32;;;;;;;4.10;1.73;;;;;;;;;;10471130;28;20723;-83
2023/05/24 10:31:36;;;;;;;4.57;1.67;;;;;;;;;;10492199;28;20230;-82
2023/05/24 10:36:39;;;;;;;4.43;1.48;;;;;;;;;;10469224;28;20301;-84
2023/05/24 10:41:40;;;;;;;3.08;1.60;;;;;;;;;;10482751;28;20245;-82
2023/05/24 10:47:00;;;;;;;2.20;1.48;;;;;;;;;;10500918;28;20268;-82
2023/05/24 10:52:02;;;;;;;8.40;1.63;;;;;;;;;;10482450;28;20234;-84
2023/05/24 10:57:04;;;;;;;6.88;1.23;;;;;;;;;;10490781;28;20214;-82
2023/05/24 11:02:12;;;;;;;6.20;1.77;;;;;;;;;;10469560;28;20627;-82
2023/05/24 11:07:14;;;;;;;3.72;1.15;;;;;;;;;;10482945;28;20228;-83
2023/05/24 11:12:19;;;;;;;3.15;1.10;;;;;;;;;;10501641;28;20210;-83
2023/05/24 11:17:21;;;;;;;2.70;1.30;;;;;;;;;;10500588;28;20297;-82
2023/05/24 11:22:23;;;;;;;4.28;1.38;;;;;;;;;;10483958;28;20243;-82
2023/05/24 11:27:25;;;;;;;4.72;1.10;;;;;;;;;;10483569;28;20218;-83
2023/05/24 11:32:27;;;;;;;5.57;1.33;;;;;;;;;;10482363;28;20233;-82
2023/05/24 11:37:28;;;;;;;2.28;1.33;;;;;;;;;;10482673;28;20237;-83
2023/05/24 11:42:29;;;;;;;6.85;1.50;;;;;;;;;;10481939;28;20656;-83
2023/05/24 11:47:30;;;;;;;5.13;1.52;;;;;;;;;;10491694;28;20201;-83
2023/05/24 11:52:31;;;;;;;3.92;0.93;;;;;;;;;;10472585;28;20252;-82
2023/05/24 11:57:39;;;;;;;5.82;1.40;;;;;;;;;;10486014;28;20218;-81
2023/05/24 12:02:41;;;;;;;4.95;1.38;;;;;;;;;;10484193;28;20222;-82
2023/05/24 12:07:47;;;;;;;2.90;1.10;;;;;;;;;;10494026;28;20209;-83
2023/05/24 12:12:48;;;;;;;3.22;1.38;;;;;;;;;;10497516;28;20614;-82
2023/05/24 12:17:50;;;;;;;4.35;1.20;;;;;;;;;;10484273;28;20222;-83
2023/05/24 12:22:51;;;;;;;3.42;1.13;;;;;;;;;;10495018;28;20218;-81
2023/05/24 12:27:54;;;;;;;7.97;1.60;;;;;;;;;;10507815;28;20253;-82
2023/05/24 12:32:56;;;;;;;3.20;1.33;;;;;;;;;;10510004;28;20225;-82
2023/05/24 12:38:00;;;;;;;3.75;1.02;;;;;;;;;;10510286;28;20218;-83
2023/05/24 12:43:02;;;;;;;0.98;0.93;;;;;;;;;;10486415;28;20297;-85
2023/05/24 12:48:03;;;;;;;6.68;1.48;;;;;;;;;;10494343;28;20696;-82
2023/05/24 12:53:05;;;;;;;3.05;1.23;;;;;;;;;;10494911;28;20804;-82
2023/05/24 12:58:08;;;;;;;4.57;1.23;;;;;;;;;;10487274;28;20232;-82
2023/05/24 13:03:09;;;;;;;4.40;0.95;;;;;;;;;;10489556;28;20703;-82
2023/05/24 13:08:10;;;;;;;0.80;0.80;;;;;;;;;;10509477;28;20237;-82
2023/05/24 13:13:11;;;;;;;1.20;1.10;;;;;;;;;;10478995;28;20222;-82
2023/05/24 13:18:12;;;;;;;2.88;1.23;;;;;;;;;;10490159;28;20213;-82
2023/05/24 13:23:13;;;;;;;4.10;0.88;;;;;;;;;;10482914;28;20233;-82
2023/05/24 13:28:14;;;;;;;0.93;0.93;;;;;;;;;;10505053;28;20305;-82
2023/05/24 13:33:15;;;;;;;2.92;0.90;;;;;;;;;;10479392;28;20699;-81
2023/05/24 13:38:17;;;;;;;5.65;1.30;;;;;;;;;;10488545;28;20278;-82
2023/05/24 13:43:18;;;;;;;1.17;1.08;;;;;;;;;;10464393;28;20206;-82
2023/05/24 13:48:19;;;;;;;2.42;1.00;;;;;;;;;;10508150;28;20217;-82
2023/05/24 13:53:21;;;;;;;3.70;1.05;;;;;;;;;;10470392;28;20235;-83
2023/05/24 13:58:22;;;;;;;3.00;0.82;;;;;;;;;;10466673;28;20229;-82
2023/05/24 14:03:23;;;;;;;5.13;1.65;;;;;;;;;;10476057;28;20210;-82
2023/05/24 14:08:24;;;;;;;2.95;1.15;;;;;;;;;;10458509;28;20222;-82
2023/05/24 14:13:25;;;;;;;3.42;1.10;;;;;;;;;;10501714;28;20217;-82
2023/05/24 14:18:27;;;;;;;3.38;1.13;;;;;;;;;;10503400;28;20306;-82
2023/05/24 14:23:31;;;;;;;1.42;0.88;;;;;;;;;;10493730;28;20218;-82
2023/05/24 14:28:33;;;;;;;4.35;1.08;;;;;;;;;;10494006;28;20272;-82
2023/05/24 14:33:34;;;;;;;2.17;0.90;;;;;;;;;;10466537;28;20218;-81
2023/05/24 14:38:35;;;;;;;2.78;1.20;;;;;;;;;;10490588;28;20226;-82
2023/05/24 14:43:36;;;;;;;3.03;0.90;;;;;;;;;;10495044;28;20217;-82
2023/05/24 14:48:40;;;;;;;3.30;1.20;;;;;;;;;;10499678;28;20231;-82
2023/05/24 14:53:41;;;;;;;4.90;0.98;;;;;;;;;;10475129;28;20236;-83
2023/05/24 14:58:42;;;;;;;1.48;0.88;;;;;;;;;;10480326;28;20301;-82
2023/05/24 15:03:43;;;;;;;3.15;1.30;;;;;;;;;;10491536;28;20213;-83
2023/05/24 15:08:44;;;;;;;2.05;0.85;;;;;;;;;;10470879;28;20312;-82
2023/05/24 15:13:45;;;;;;;1.17;1.00;;;;;;;;;;10492053;28;20225;-82
2023/05/24 15:18:46;;;;;;;1.52;1.10;;;;;;;;;;10479010;28;20241;-82
2023/05/24 15:23:47;;;;;;;1.95;1.20;;;;;;;;;;10503099;28;20222;-81
2023/05/24 15:28:48;;;;;;;1.92;1.25;;;;;;;;;;10484051;28;20221;-81
2023/05/24 15:33:49;;;;;;;7.03;1.40;;;;;;;;;;10505773;28;20851;-81
2023/05/24 15:38:50;;;;;;;3.03;1.30;;;;;;;;;;10468936;28;20241;-81
2023/05/24 15:43:51;;;;;;;1.35;1.27;;;;;;;;;;10458088;28;20216;-80
2023/05/24 15:48:52;;;;;;;3.33;1.10;;;;;;;;;;10458811;28;20224;-80
2023/05/24 15:53:54;;;;;;;3.13;1.30;;;;;;;;;;10466172;28;20210;-81
2023/05/24 15:58:55;;;;;;;3.63;1.20;;;;;;;;;;10493257;28;20243;-81
2023/05/24 16:03:56;;;;;;;2.40;1.20;;;;;;;;;;10477782;28;20207;-81
2023/05/24 16:08:57;;;;;;;2.40;1.05;;;;;;;;;;10474878;28;20214;-81
2023/05/24 16:13:58;;;;;;;1.60;1.20;;;;;;;;;;10477705;28;20217;-81
2023/05/24 16:18:59;;;;;;;2.63;1.13;;;;;;;;;;10474686;28;20206;-81
2023/05/24 16:24:02;;;;;;;4.30;1.33;;;;;;;;;;10482929;28;20205;-81
2023/05/24 16:29:05;;;;;;;2.65;1.40;;;;;;;;;;10476030;28;20210;-81
2023/05/24 16:34:06;;;;;;;1.02;1.02;;;;;;;;;;10504496;28;20510;-81
2023/05/24 16:39:07;;;;;;;1.17;1.08;;;;;;;;;;10489375;28;20217;-80
2023/05/24 16:44:11;;;;;;;5.03;1.10;;;;;;;;;;10465712;28;20758;-81
2023/05/24 16:49:12;;;;;;;0.90;0.90;;;;;;;;;;10480020;28;20214;-81
2023/05/24 16:54:13;;;;;;;1.35;1.00;;;;;;;;;;10479633;28;20384;-80
2023/05/24 16:59:15;;;;;;;1.77;0.95;;;;;;;;;;10477259;28;20319;-81
2023/05/24 17:04:17;;;;;;;3.92;1.10;;;;;;;;;;10481275;28;20213;-81
2023/05/24 17:09:18;;;;;;;2.83;0.80;;;;;;;;;;10479766;28;20252;-81
2023/05/24 17:14:19;;;;;;;2.33;0.98;;;;;;;;;;10505109;28;20258;-81
2023/05/24 17:19:20;;;;;;;2.47;1.05;;;;;;;;;;10481665;28;20313;-81
2023/05/24 17:24:24;;;;;;;2.28;0.70;;;;;;;;;;10496021;28;20277;-80
2023/05/24 17:29:25;;;;;;;1.63;0.60;;;;;;;;;;10511917;28;20232;-80
2023/05/24 17:34:26;;;;;;;2.22;1.10;;;;;;;;;;10524577;28;20239;-80
2023/05/24 17:39:27;;;;;;;2.50;0.90;;;;;;;;;;10485730;28;20280;-80
2023/05/24 17:44:28;;;;;;;0.93;0.73;;;;;;;;;;10483294;28;20221;-80
2023/05/24 17:49:31;;;;;;;3.20;0.98;;;;;;;;;;10476287;28;20242;-80
2023/05/24 17:54:32;;;;;;;7.97;1.17;;;;;;;;;;10473820;28;20226;-80
2023/05/24 17:59:33;;;;;;;4.28;1.45;;;;;;;;;;10470805;28;20232;-79
2023/05/24 18:04:34;;;;;;;3.58;0.90;;;;;;;;;;10500920;28;20555;-80
2023/05/24 18:09:35;;;;;;;1.38;1.05;;;;;;;;;;10491146;28;20601;-80
2023/05/24 18:14:36;;;;;;;1.40;1.33;;;;;;;;;;10461889;28;20230;-81
2023/05/24 18:19:37;;;;;;;2.67;1.52;;;;;;;;;;10474226;28;20231;-80
2023/05/24 18:24:38;;;;;;;0.70;0.65;;;;;;;;;;10482187;28;20232;-79
2023/05/24 18:29:40;;;;;;;1.25;0.98;;;;;;;;;;10486777;28;20241;-81
2023/05/24 18:34:41;;;;;;;1.35;1.13;;;;;;;;;;10477807;28;20218;-80
2023/05/24 18:39:42;;;;;;;2.22;0.90;;;;;;;;;;10475969;28;20217;-80
2023/05/24 18:44:43;;;;;;;4.80;1.75;;;;;;;;;;10475171;28;20268;-80
2023/05/24 18:49:44;;;;;;;1.48;1.15;;;;;;;;;;10494318;28;20233;-80
2023/05/24 18:54:45;;;;;;;1.77;1.23;;;;;;;;;;10475584;28;20288;-80
2023/05/24 18:59:46;;;;;;;1.63;1.42;;;;;;;;;;10480410;28;20213;-82
2023/05/24 19:04:47;;;;;;;1.08;1.08;;;;;;;;;;10454828;28;20221;-80
2023/05/24 19:09:48;;;;;;;1.88;1.38;;;;;;;;;;10481168;28;20209;-80
2023/05/24 19:14:49;;;;;;;1.50;0.90;;;;;;;;;;10471752;28;20284;-79
2023/05/24 19:19:50;;;;;;;3.42;1.27;;;;;;;;;;10467555;28;20424;-80
2023/05/24 19:24:51;;;;;;;1.85;1.08;;;;;;;;;;10467622;28;20773;-80
2023/05/24 19:29:52;;;;;;;1.77;0.85;;;;;;;;;;10497865;28;20228;-83
2023/05/24 19:34:53;;;;;;;2.00;1.02;;;;;;;;;;10474362;28;20209;-80
2023/05/24 19:39:54;;;;;;;1.13;1.02;;;;;;;;;;10473654;28;20222;-80
2023/05/24 19:44:56;;;;;;;0.90;0.90;;;;;;;;;;10484963;28;20283;-80
2023/05/24 19:49:57;;;;;;;1.63;1.20;;;;;;;;;;10484254;28;20328;-80
2023/05/24 19:54:58;;;;;;;1.13;1.13;;;;;;;;;;10448724;28;20219;-80
2023/05/24 20:00:00;;;;;;;1.40;1.30;;;;;;;;;;10458757;28;20264;-80
2023/05/24 20:05:01;;;;;;;1.88;1.77;;;;;;;;;;10488569;28;20210;-79
2023/05/24 20:10:03;;;;;;;1.65;1.55;;;;;;;;;;10462048;28;20232;-79
2023/05/24 20:15:06;;;;;;;1.98;1.88;;;;;;;;;;10492788;28;20185;-80
2023/05/24 20:20:08;;;;;;;1.88;1.77;;;;;;;;;;10499058;28;20279;-79
2023/05/24 20:25:09;;;;;;;5.15;2.08;;;;;;;;;;10467318;28;20185;-81
2023/05/24 20:30:11;;;;;;;1.38;1.38;;;;;;;;;;10511653;28;20209;-82
2023/05/24 20:35:12;;;;;;;3.30;2.20;;;;;;;;;;10490464;28;20171;-80
2023/05/24 20:40:18;;;;;;;2.42;1.85;;;;;;;;;;10494955;28;20201;-80
2023/05/24 20:45:20;;;;;;;1.73;1.42;;;;;;;;;;10486608;28;20183;-80
2023/05/24 20:50:21;;;;;;;1.75;1.65;;;;;;;;;;10490616;28;20213;-80
2023/05/24 20:55:22;;;;;;;3.88;1.75;;;;;;;;;;10488892;28;20410;-80
2023/05/24 21:00:23;;;;;;;2.00;1.80;;;;;;;;;;10507714;28;20298;-80
2023/05/24 21:05:24;;;;;;;2.72;1.98;;;;;;;;;;10498991;28;20210;-80
2023/05/24 21:10:26;;;;;;;1.75;1.50;;;;;;;;;;10479198;28;20221;-80
2023/05/24 21:15:27;;;;;;;3.08;2.03;;;;;;;;;;10487504;28;20295;-80
2023/05/24 21:20:28;;;;;;;1.90;1.38;;;;;;;;;;10490630;28;20324;-80
2023/05/24 21:25:29;;;;;;;2.55;2.03;;;;;;;;;;10503617;28;20214;-80
2023/05/24 21:30:30;;;;;;;4.47;2.55;;;;;;;;;;10484449;28;20221;-80
2023/05/24 21:35:31;;;;;;;2.30;2.10;;;;;;;;;;10489149;28;20222;-80
2023/05/24 21:40:32;;;;;;;5.47;2.20;;;;;;;;;;10483339;28;20240;-80
2023/05/24 21:45:33;;;;;;;2.35;2.20;;;;;;;;;;10503343;28;20220;-80
2023/05/24 21:50:35;;;;;;;2.55;1.85;;;;;;;;;;10519915;28;20230;-80
2023/05/24 21:55:36;;;;;;;1.90;1.80;;;;;;;;;;10491788;28;20213;-80
2023/05/24 22:00:37;;;;;;;2.22;2.13;;;;;;;;;;10515219;28;20577;-80
2023/05/24 22:05:38;;;;;;;2.30;2.20;;;;;;;;;;10487602;28;20210;-80
2023/05/24 22:10:39;;;;;;;5.32;2.10;;;;;;;;;;10485583;28;20218;-81
2023/05/24 22:15:40;;;;;;;2.70;2.50;;;;;;;;;;10492355;28;20212;-81
2023/05/24 22:20:43;;;;;;;2.53;2.22;;;;;;;;;;10496992;28;20283;-80
2023/05/24 22:25:44;;;;;;;6.35;2.80;;;;;;;;;;10473554;28;20203;-80
2023/05/24 22:30:46;;;;;;;2.80;2.55;;;;;;;;;;10480143;28;20259;-81
2023/05/24 22:35:47;;;;;;;3.60;2.60;;;;;;;;;;10473722;28;20214;-80
2023/05/24 22:40:48;;;;;;;3.00;2.70;;;;;;;;;;10489378;28;20313;-80
2023/05/24 22:45:50;;;;;;;7.88;2.38;;;;;;;;;;10527464;28;20198;-81
2023/05/24 22:50:51;;;;;;;2.13;2.03;;;;;;;;;;10525125;28;20257;-80
2023/05/24 22:55:52;;;;;;;2.50;2.33;;;;;;;;;;10466038;28;20711;-80
2023/05/24 23:00:53;;;;;;;2.40;2.17;;;;;;;;;;10468670;28;20360;-80
2023/05/24 23:05:54;;;;;;;2.97;2.65;;;;;;;;;;10502704;28;20221;-80
2023/05/24 23:10:56;;;;;;;3.40;3.00;;;;;;;;;;10483743;28;20225;-79
2023/05/24 23:15:58;;;;;;;8.07;3.88;;;;;;;;;;10500598;28;20217;-80
2023/05/24 23:21:01;;;;;;;3.53;3.13;;;;;;;;;;10443109;28;1056598;-80
2023/05/24 23:26:02;;;;;;;5.75;3.40;;;;;;;;;;10478315;28;20220;-80
2023/05/24 23:31:03;;;;;;;3.55;3.25;;;;;;;;;;10496056;28;20221;-80
2023/05/24 23:36:05;;;;;;;8.27;3.13;;;;;;;;;;10474700;28;20635;-79
2023/05/24 23:41:06;;;;;;;5.85;2.92;;;;;;;;;;10462751;28;20312;-79
2023/05/24 23:46:07;;;;;;;3.10;2.97;;;;;;;;;;10472180;28;20679;-80
2023/05/24 23:51:09;;;;;;;5.40;2.95;;;;;;;;;;10474402;28;20652;-80
2023/05/24 23:56:10;;;;;;;6.25;3.45;;;;;;;;;;10472857;28;20217;-80
